sensor_id;sensor_type;location;lat;lon;timestamp;P1;durP1;ratioP1;P2;durP2;ratioP2
19854;SDS011;10088;47.946;2.532;2023-03-08T00:01:47;13.30;;;7.57;;
19854;SDS011;10088;47.946;2.532;2023-03-08T00:04:12;11.43;;;7.70;;
19854;SDS011;10088;47.946;2.532;2023-03-08T00:06:38;11.87;;;7.13;;
19854;SDS011;10088;47.946;2.532;2023-03-08T00:09:03;15.97;;;8.87;;
19854;SDS011;10088;47.946;2.532;2023-03-08T00:11:28;12.13;;;6.50;;
19854;SDS011;10088;47.946;2.532;2023-03-08T00:13:54;12.20;;;7.40;;
19854;SDS011;10088;47.946;2.532;2023-03-08T00:16:20;9.43;;;5.17;;
19854;SDS011;10088;47.946;2.532;2023-03-08T00:18:45;8.50;;;5.87;;
19854;SDS011;10088;47.946;2.532;2023-03-08T00:21:11;12.87;;;6.37;;
19854;SDS011;10088;47.946;2.532;2023-03-08T00:23:37;9.93;;;6.30;;
19854;SDS011;10088;47.946;2.532;2023-03-08T00:26:03;8.97;;;6.30;;
19854;SDS011;10088;47.946;2.532;2023-03-08T00:28:28;10.40;;;6.70;;
19854;SDS011;10088;47.946;2.532;2023-03-08T00:30:54;8.83;;;6.43;;
19854;SDS011;10088;47.946;2.532;2023-03-08T00:33:19;5.80;;;4.43;;
19854;SDS011;10088;47.946;2.532;2023-03-08T00:35:52;8.20;;;6.00;;
19854;SDS011;10088;47.946;2.532;2023-03-08T00:38:19;10.07;;;5.23;;
19854;SDS011;10088;47.946;2.532;2023-03-08T00:40:44;8.03;;;6.20;;
19854;SDS011;10088;47.946;2.532;2023-03-08T00:43:10;8.07;;;5.43;;
19854;SDS011;10088;47.946;2.532;2023-03-08T00:45:35;7.93;;;5.47;;
19854;SDS011;10088;47.946;2.532;2023-03-08T00:48:00;9.23;;;5.60;;
19854;SDS011;10088;47.946;2.532;2023-03-08T00:50:25;9.03;;;5.37;;
19854;SDS011;10088;47.946;2.532;2023-03-08T00:52:51;6.13;;;4.80;;
19854;SDS011;10088;47.946;2.532;2023-03-08T00:55:16;9.43;;;5.33;;
19854;SDS011;10088;47.946;2.532;2023-03-08T00:57:41;7.73;;;5.97;;
19854;SDS011;10088;47.946;2.532;2023-03-08T01:00:07;11.13;;;7.40;;
19854;SDS011;10088;47.946;2.532;2023-03-08T01:02:35;8.80;;;6.20;;
19854;SDS011;10088;47.946;2.532;2023-03-08T01:05:00;7.43;;;4.73;;
19854;SDS011;10088;47.946;2.532;2023-03-08T01:07:25;7.67;;;5.90;;
19854;SDS011;10088;47.946;2.532;2023-03-08T01:09:55;7.10;;;4.73;;
19854;SDS011;10088;47.946;2.532;2023-03-08T01:12:20;10.57;;;5.77;;
19854;SDS011;10088;47.946;2.532;2023-03-08T01:14:46;9.17;;;6.60;;
19854;SDS011;10088;47.946;2.532;2023-03-08T01:17:11;7.17;;;5.07;;
19854;SDS011;10088;47.946;2.532;2023-03-08T01:19:37;8.53;;;5.80;;
19854;SDS011;10088;47.946;2.532;2023-03-08T01:22:02;7.87;;;6.67;;
19854;SDS011;10088;47.946;2.532;2023-03-08T01:24:27;8.17;;;6.47;;
19854;SDS011;10088;47.946;2.532;2023-03-08T01:26:53;7.33;;;5.37;;
19854;SDS011;10088;47.946;2.532;2023-03-08T01:29:19;8.03;;;6.50;;
19854;SDS011;10088;47.946;2.532;2023-03-08T01:31:45;7.17;;;5.33;;
19854;SDS011;10088;47.946;2.532;2023-03-08T01:34:10;9.00;;;6.43;;
19854;SDS011;10088;47.946;2.532;2023-03-08T01:36:35;7.03;;;5.50;;
19854;SDS011;10088;47.946;2.532;2023-03-08T01:39:01;10.90;;;7.97;;
19854;SDS011;10088;47.946;2.532;2023-03-08T01:41:27;9.10;;;6.67;;
19854;SDS011;10088;47.946;2.532;2023-03-08T01:43:53;7.10;;;5.73;;
19854;SDS011;10088;47.946;2.532;2023-03-08T01:48:52;9.13;;;5.83;;
19854;SDS011;10088;47.946;2.532;2023-03-08T01:54:20;8.93;;;6.60;;
19854;SDS011;10088;47.946;2.532;2023-03-08T01:56:47;9.47;;;6.67;;
19854;SDS011;10088;47.946;2.532;2023-03-08T01:59:13;8.13;;;5.87;;
19854;SDS011;10088;47.946;2.532;2023-03-08T02:01:39;10.43;;;6.33;;
19854;SDS011;10088;47.946;2.532;2023-03-08T02:04:05;9.23;;;6.67;;
19854;SDS011;10088;47.946;2.532;2023-03-08T02:06:30;10.63;;;7.27;;
19854;SDS011;10088;47.946;2.532;2023-03-08T02:08:56;6.67;;;5.33;;
19854;SDS011;10088;47.946;2.532;2023-03-08T02:11:21;7.13;;;5.40;;
19854;SDS011;10088;47.946;2.532;2023-03-08T02:13:48;7.10;;;5.60;;
19854;SDS011;10088;47.946;2.532;2023-03-08T02:16:14;7.57;;;5.57;;
19854;SDS011;10088;47.946;2.532;2023-03-08T02:21:18;12.37;;;7.27;;
19854;SDS011;10088;47.946;2.532;2023-03-08T02:23:43;8.17;;;5.40;;
19854;SDS011;10088;47.946;2.532;2023-03-08T02:26:09;6.80;;;6.00;;
19854;SDS011;10088;47.946;2.532;2023-03-08T02:28:34;12.20;;;7.70;;
19854;SDS011;10088;47.946;2.532;2023-03-08T02:30:59;9.93;;;6.63;;
19854;SDS011;10088;47.946;2.532;2023-03-08T02:33:25;9.60;;;6.27;;
19854;SDS011;10088;47.946;2.532;2023-03-08T02:35:50;10.10;;;6.93;;
19854;SDS011;10088;47.946;2.532;2023-03-08T02:38:16;9.60;;;7.27;;
19854;SDS011;10088;47.946;2.532;2023-03-08T02:40:41;9.53;;;6.57;;
19854;SDS011;10088;47.946;2.532;2023-03-08T02:43:07;10.60;;;7.53;;
19854;SDS011;10088;47.946;2.532;2023-03-08T02:45:32;9.30;;;6.80;;
19854;SDS011;10088;47.946;2.532;2023-03-08T02:47:58;5.97;;;4.83;;
19854;SDS011;10088;47.946;2.532;2023-03-08T02:50:23;10.47;;;6.83;;
19854;SDS011;10088;47.946;2.532;2023-03-08T02:52:49;9.13;;;6.57;;
19854;SDS011;10088;47.946;2.532;2023-03-08T02:55:14;8.87;;;5.47;;
19854;SDS011;10088;47.946;2.532;2023-03-08T02:57:39;11.80;;;7.17;;
19854;SDS011;10088;47.946;2.532;2023-03-08T03:00:05;10.07;;;6.97;;
19854;SDS011;10088;47.946;2.532;2023-03-08T03:02:33;12.00;;;7.20;;
19854;SDS011;10088;47.946;2.532;2023-03-08T03:04:59;7.03;;;5.07;;
19854;SDS011;10088;47.946;2.532;2023-03-08T03:07:24;11.27;;;7.20;;
19854;SDS011;10088;47.946;2.532;2023-03-08T03:09:49;9.93;;;6.43;;
19854;SDS011;10088;47.946;2.532;2023-03-08T03:12:15;8.23;;;6.37;;
19854;SDS011;10088;47.946;2.532;2023-03-08T03:14:40;10.97;;;6.70;;
19854;SDS011;10088;47.946;2.532;2023-03-08T03:17:05;7.50;;;6.27;;
19854;SDS011;10088;47.946;2.532;2023-03-08T03:19:31;9.97;;;6.07;;
19854;SDS011;10088;47.946;2.532;2023-03-08T03:21:56;8.87;;;6.10;;
19854;SDS011;10088;47.946;2.532;2023-03-08T03:24:21;8.47;;;5.70;;
19854;SDS011;10088;47.946;2.532;2023-03-08T03:26:48;6.07;;;4.67;;
19854;SDS011;10088;47.946;2.532;2023-03-08T03:29:14;4.67;;;3.87;;
19854;SDS011;10088;47.946;2.532;2023-03-08T03:31:39;7.60;;;5.27;;
19854;SDS011;10088;47.946;2.532;2023-03-08T03:34:04;6.10;;;3.83;;
19854;SDS011;10088;47.946;2.532;2023-03-08T03:36:30;6.63;;;4.33;;
19854;SDS011;10088;47.946;2.532;2023-03-08T03:38:55;6.93;;;4.87;;
19854;SDS011;10088;47.946;2.532;2023-03-08T03:41:21;5.40;;;4.13;;
19854;SDS011;10088;47.946;2.532;2023-03-08T03:43:47;13.33;;;4.27;;
19854;SDS011;10088;47.946;2.532;2023-03-08T03:46:14;5.20;;;4.20;;
19854;SDS011;10088;47.946;2.532;2023-03-08T03:48:39;3.53;;;3.23;;
19854;SDS011;10088;47.946;2.532;2023-03-08T03:51:05;5.13;;;3.37;;
19854;SDS011;10088;47.946;2.532;2023-03-08T03:53:31;3.97;;;3.17;;
19854;SDS011;10088;47.946;2.532;2023-03-08T03:58:29;7.40;;;3.53;;
19854;SDS011;10088;47.946;2.532;2023-03-08T04:00:54;4.10;;;3.23;;
19854;SDS011;10088;47.946;2.532;2023-03-08T04:03:20;4.13;;;2.70;;
19854;SDS011;10088;47.946;2.532;2023-03-08T04:05:45;5.70;;;2.83;;
19854;SDS011;10088;47.946;2.532;2023-03-08T04:08:10;3.60;;;3.10;;
19854;SDS011;10088;47.946;2.532;2023-03-08T04:10:36;5.90;;;3.40;;
19854;SDS011;10088;47.946;2.532;2023-03-08T04:13:01;5.23;;;3.33;;
19854;SDS011;10088;47.946;2.532;2023-03-08T04:15:26;4.50;;;3.37;;
19854;SDS011;10088;47.946;2.532;2023-03-08T04:17:52;5.53;;;3.10;;
19854;SDS011;10088;47.946;2.532;2023-03-08T04:20:18;3.33;;;3.03;;
19854;SDS011;10088;47.946;2.532;2023-03-08T04:22:43;9.37;;;6.27;;
19854;SDS011;10088;47.946;2.532;2023-03-08T04:25:08;6.63;;;5.00;;
19854;SDS011;10088;47.946;2.532;2023-03-08T04:27:34;19.27;;;10.97;;
19854;SDS011;10088;47.946;2.532;2023-03-08T04:29:59;11.07;;;6.93;;
19854;SDS011;10088;47.946;2.532;2023-03-08T04:32:24;23.00;;;9.83;;
19854;SDS011;10088;47.946;2.532;2023-03-08T04:34:49;10.50;;;5.33;;
19854;SDS011;10088;47.946;2.532;2023-03-08T04:37:15;36.27;;;13.57;;
19854;SDS011;10088;47.946;2.532;2023-03-08T04:39:40;23.63;;;10.77;;
19854;SDS011;10088;47.946;2.532;2023-03-08T04:42:05;8.73;;;4.00;;
19854;SDS011;10088;47.946;2.532;2023-03-08T04:44:31;10.93;;;5.63;;
19854;SDS011;10088;47.946;2.532;2023-03-08T04:46:56;19.60;;;9.93;;
19854;SDS011;10088;47.946;2.532;2023-03-08T04:49:22;19.80;;;9.43;;
19854;SDS011;10088;47.946;2.532;2023-03-08T04:51:47;18.53;;;9.37;;
19854;SDS011;10088;47.946;2.532;2023-03-08T04:54:12;37.77;;;16.73;;
19854;SDS011;10088;47.946;2.532;2023-03-08T04:56:38;15.17;;;7.70;;
19854;SDS011;10088;47.946;2.532;2023-03-08T04:59:03;16.20;;;8.07;;
19854;SDS011;10088;47.946;2.532;2023-03-08T05:01:28;17.17;;;9.27;;
19854;SDS011;10088;47.946;2.532;2023-03-08T05:03:54;15.17;;;7.77;;
19854;SDS011;10088;47.946;2.532;2023-03-08T05:06:20;9.63;;;5.70;;
19854;SDS011;10088;47.946;2.532;2023-03-08T05:08:45;5.77;;;3.73;;
19854;SDS011;10088;47.946;2.532;2023-03-08T05:11:15;8.80;;;5.83;;
19854;SDS011;10088;47.946;2.532;2023-03-08T05:13:41;5.50;;;3.67;;
19854;SDS011;10088;47.946;2.532;2023-03-08T05:16:06;11.67;;;6.67;;
19854;SDS011;10088;47.946;2.532;2023-03-08T05:18:32;13.20;;;7.80;;
19854;SDS011;10088;47.946;2.532;2023-03-08T05:20:59;3.97;;;2.97;;
19854;SDS011;10088;47.946;2.532;2023-03-08T05:23:25;7.87;;;5.07;;
19854;SDS011;10088;47.946;2.532;2023-03-08T05:25:54;5.60;;;2.93;;
19854;SDS011;10088;47.946;2.532;2023-03-08T05:28:20;7.20;;;3.57;;
19854;SDS011;10088;47.946;2.532;2023-03-08T05:30:46;7.17;;;4.73;;
19854;SDS011;10088;47.946;2.532;2023-03-08T05:33:11;4.20;;;3.10;;
19854;SDS011;10088;47.946;2.532;2023-03-08T05:35:36;3.13;;;2.70;;
19854;SDS011;10088;47.946;2.532;2023-03-08T05:38:02;6.53;;;3.90;;
19854;SDS011;10088;47.946;2.532;2023-03-08T05:40:27;6.20;;;3.60;;
19854;SDS011;10088;47.946;2.532;2023-03-08T05:42:53;4.63;;;3.40;;
19854;SDS011;10088;47.946;2.532;2023-03-08T05:45:18;6.07;;;4.20;;
19854;SDS011;10088;47.946;2.532;2023-03-08T05:47:43;4.67;;;3.23;;
19854;SDS011;10088;47.946;2.532;2023-03-08T05:50:10;3.60;;;2.63;;
19854;SDS011;10088;47.946;2.532;2023-03-08T05:52:35;3.97;;;3.17;;
19854;SDS011;10088;47.946;2.532;2023-03-08T05:55:01;5.40;;;3.63;;
19854;SDS011;10088;47.946;2.532;2023-03-08T05:57:26;3.00;;;2.50;;
19854;SDS011;10088;47.946;2.532;2023-03-08T05:59:52;3.57;;;2.57;;
19854;SDS011;10088;47.946;2.532;2023-03-08T06:02:17;4.27;;;3.23;;
19854;SDS011;10088;47.946;2.532;2023-03-08T06:04:42;7.47;;;3.07;;
19854;SDS011;10088;47.946;2.532;2023-03-08T06:07:08;2.60;;;2.00;;
19854;SDS011;10088;47.946;2.532;2023-03-08T06:09:33;2.97;;;2.10;;
19854;SDS011;10088;47.946;2.532;2023-03-08T06:11:58;6.40;;;3.83;;
19854;SDS011;10088;47.946;2.532;2023-03-08T06:14:24;10.37;;;4.63;;
19854;SDS011;10088;47.946;2.532;2023-03-08T06:16:49;5.67;;;2.73;;
19854;SDS011;10088;47.946;2.532;2023-03-08T06:19:14;5.73;;;2.63;;
19854;SDS011;10088;47.946;2.532;2023-03-08T06:21:40;1.40;;;1.20;;
19854;SDS011;10088;47.946;2.532;2023-03-08T06:24:05;1.53;;;1.43;;
19854;SDS011;10088;47.946;2.532;2023-03-08T06:26:30;1.33;;;1.10;;
19854;SDS011;10088;47.946;2.532;2023-03-08T06:28:56;1.03;;;0.90;;
19854;SDS011;10088;47.946;2.532;2023-03-08T06:31:21;2.70;;;1.30;;
19854;SDS011;10088;47.946;2.532;2023-03-08T06:33:46;2.43;;;1.90;;
19854;SDS011;10088;47.946;2.532;2023-03-08T06:36:18;1.40;;;1.00;;
19854;SDS011;10088;47.946;2.532;2023-03-08T06:38:44;1.30;;;1.10;;
19854;SDS011;10088;47.946;2.532;2023-03-08T06:41:10;1.17;;;1.07;;
19854;SDS011;10088;47.946;2.532;2023-03-08T06:43:36;2.07;;;1.37;;
19854;SDS011;10088;47.946;2.532;2023-03-08T06:46:08;0.57;;;0.57;;
19854;SDS011;10088;47.946;2.532;2023-03-08T06:48:34;2.07;;;1.43;;
19854;SDS011;10088;47.946;2.532;2023-03-08T06:51:00;2.97;;;1.87;;
19854;SDS011;10088;47.946;2.532;2023-03-08T06:53:25;1.83;;;1.10;;
19854;SDS011;10088;47.946;2.532;2023-03-08T06:55:51;1.43;;;0.90;;
19854;SDS011;10088;47.946;2.532;2023-03-08T06:58:16;1.80;;;0.90;;
19854;SDS011;10088;47.946;2.532;2023-03-08T07:00:41;1.67;;;1.10;;
19854;SDS011;10088;47.946;2.532;2023-03-08T07:03:07;1.73;;;1.40;;
19854;SDS011;10088;47.946;2.532;2023-03-08T07:05:32;0.50;;;0.50;;
19854;SDS011;10088;47.946;2.532;2023-03-08T07:07:57;0.60;;;0.53;;
19854;SDS011;10088;47.946;2.532;2023-03-08T07:10:23;3.87;;;1.80;;
19854;SDS011;10088;47.946;2.532;2023-03-08T07:12:48;1.17;;;0.70;;
19854;SDS011;10088;47.946;2.532;2023-03-08T07:15:16;2.43;;;1.60;;
19854;SDS011;10088;47.946;2.532;2023-03-08T07:17:43;0.90;;;0.80;;
19854;SDS011;10088;47.946;2.532;2023-03-08T07:20:09;0.67;;;0.63;;
19854;SDS011;10088;47.946;2.532;2023-03-08T07:22:35;1.43;;;0.97;;
19854;SDS011;10088;47.946;2.532;2023-03-08T07:25:00;0.67;;;0.40;;
19854;SDS011;10088;47.946;2.532;2023-03-08T07:27:26;0.77;;;0.60;;
19854;SDS011;10088;47.946;2.532;2023-03-08T07:29:51;2.37;;;1.47;;
19854;SDS011;10088;47.946;2.532;2023-03-08T07:32:16;1.00;;;0.70;;
19854;SDS011;10088;47.946;2.532;2023-03-08T07:34:42;1.10;;;1.00;;
19854;SDS011;10088;47.946;2.532;2023-03-08T07:37:11;2.00;;;1.43;;
19854;SDS011;10088;47.946;2.532;2023-03-08T07:39:37;0.93;;;0.60;;
19854;SDS011;10088;47.946;2.532;2023-03-08T07:42:02;1.57;;;1.07;;
19854;SDS011;10088;47.946;2.532;2023-03-08T07:44:27;3.67;;;0.80;;
19854;SDS011;10088;47.946;2.532;2023-03-08T07:46:53;3.73;;;2.03;;
19854;SDS011;10088;47.946;2.532;2023-03-08T07:49:18;1.43;;;0.47;;
19854;SDS011;10088;47.946;2.532;2023-03-08T07:51:43;2.00;;;0.50;;
19854;SDS011;10088;47.946;2.532;2023-03-08T07:54:10;0.93;;;0.60;;
19854;SDS011;10088;47.946;2.532;2023-03-08T07:56:35;4.13;;;1.77;;
19854;SDS011;10088;47.946;2.532;2023-03-08T07:59:00;2.40;;;1.33;;
19854;SDS011;10088;47.946;2.532;2023-03-08T08:01:26;3.23;;;1.83;;
19854;SDS011;10088;47.946;2.532;2023-03-08T08:03:51;2.33;;;1.53;;
19854;SDS011;10088;47.946;2.532;2023-03-08T08:06:16;3.07;;;1.43;;
19854;SDS011;10088;47.946;2.532;2023-03-08T08:08:42;1.50;;;1.40;;
19854;SDS011;10088;47.946;2.532;2023-03-08T08:11:14;1.57;;;1.27;;
19854;SDS011;10088;47.946;2.532;2023-03-08T08:13:40;1.27;;;0.87;;
19854;SDS011;10088;47.946;2.532;2023-03-08T08:16:05;1.87;;;1.00;;
19854;SDS011;10088;47.946;2.532;2023-03-08T08:18:34;2.83;;;1.67;;
19854;SDS011;10088;47.946;2.532;2023-03-08T08:21:00;2.77;;;1.30;;
19854;SDS011;10088;47.946;2.532;2023-03-08T08:23:26;1.93;;;0.90;;
19854;SDS011;10088;47.946;2.532;2023-03-08T08:25:51;2.17;;;0.97;;
19854;SDS011;10088;47.946;2.532;2023-03-08T08:28:17;3.50;;;2.60;;
19854;SDS011;10088;47.946;2.532;2023-03-08T08:30:42;1.87;;;1.57;;
19854;SDS011;10088;47.946;2.532;2023-03-08T08:33:08;3.60;;;1.80;;
19854;SDS011;10088;47.946;2.532;2023-03-08T08:35:33;6.87;;;2.93;;
19854;SDS011;10088;47.946;2.532;2023-03-08T08:37:58;5.00;;;2.53;;
19854;SDS011;10088;47.946;2.532;2023-03-08T08:40:23;4.47;;;1.70;;
19854;SDS011;10088;47.946;2.532;2023-03-08T08:42:49;1.57;;;0.90;;
19854;SDS011;10088;47.946;2.532;2023-03-08T08:45:16;1.23;;;0.87;;
19854;SDS011;10088;47.946;2.532;2023-03-08T08:47:41;1.43;;;1.17;;
19854;SDS011;10088;47.946;2.532;2023-03-08T08:50:06;2.67;;;1.57;;
19854;SDS011;10088;47.946;2.532;2023-03-08T08:52:32;2.33;;;1.13;;
19854;SDS011;10088;47.946;2.532;2023-03-08T08:54:57;5.37;;;1.30;;
19854;SDS011;10088;47.946;2.532;2023-03-08T08:57:22;1.20;;;0.90;;
19854;SDS011;10088;47.946;2.532;2023-03-08T08:59:48;2.77;;;1.60;;
19854;SDS011;10088;47.946;2.532;2023-03-08T09:02:13;1.10;;;1.00;;
19854;SDS011;10088;47.946;2.532;2023-03-08T09:04:38;1.60;;;1.23;;
19854;SDS011;10088;47.946;2.532;2023-03-08T09:07:03;3.87;;;2.03;;
19854;SDS011;10088;47.946;2.532;2023-03-08T09:09:31;2.47;;;1.10;;
19854;SDS011;10088;47.946;2.532;2023-03-08T09:11:56;6.00;;;2.83;;
19854;SDS011;10088;47.946;2.532;2023-03-08T09:14:22;5.03;;;2.70;;
19854;SDS011;10088;47.946;2.532;2023-03-08T09:16:47;6.37;;;3.27;;
19854;SDS011;10088;47.946;2.532;2023-03-08T09:19:12;1.67;;;1.40;;
19854;SDS011;10088;47.946;2.532;2023-03-08T09:21:39;5.27;;;2.63;;
19854;SDS011;10088;47.946;2.532;2023-03-08T09:24:05;7.47;;;3.60;;
19854;SDS011;10088;47.946;2.532;2023-03-08T09:26:31;5.80;;;2.37;;
19854;SDS011;10088;47.946;2.532;2023-03-08T09:28:57;5.33;;;2.43;;
19854;SDS011;10088;47.946;2.532;2023-03-08T09:31:23;5.40;;;3.23;;
19854;SDS011;10088;47.946;2.532;2023-03-08T09:33:49;3.63;;;2.10;;
19854;SDS011;10088;47.946;2.532;2023-03-08T09:36:15;2.20;;;1.60;;
19854;SDS011;10088;47.946;2.532;2023-03-08T09:38:41;3.00;;;2.10;;
19854;SDS011;10088;47.946;2.532;2023-03-08T09:41:14;2.77;;;1.83;;
19854;SDS011;10088;47.946;2.532;2023-03-08T09:46:29;2.83;;;1.90;;
19854;SDS011;10088;47.946;2.532;2023-03-08T09:48:56;4.33;;;1.80;;
19854;SDS011;10088;47.946;2.532;2023-03-08T09:51:24;7.40;;;2.00;;
19854;SDS011;10088;47.946;2.532;2023-03-08T09:53:54;3.83;;;1.57;;
19854;SDS011;10088;47.946;2.532;2023-03-08T10:04:45;5.00;;;2.00;;
19854;SDS011;10088;47.946;2.532;2023-03-08T10:09:41;5.37;;;2.70;;
19854;SDS011;10088;47.946;2.532;2023-03-08T10:14:47;3.27;;;1.90;;
19854;SDS011;10088;47.946;2.532;2023-03-08T10:17:24;3.50;;;1.73;;
19854;SDS011;10088;47.946;2.532;2023-03-08T10:19:55;4.43;;;2.10;;
19854;SDS011;10088;47.946;2.532;2023-03-08T10:22:24;2.90;;;2.00;;
19854;SDS011;10088;47.946;2.532;2023-03-08T10:24:58;4.00;;;2.27;;
19854;SDS011;10088;47.946;2.532;2023-03-08T10:27:26;3.47;;;1.67;;
19854;SDS011;10088;47.946;2.532;2023-03-08T10:29:56;5.77;;;2.07;;
19854;SDS011;10088;47.946;2.532;2023-03-08T10:32:21;3.33;;;1.90;;
19854;SDS011;10088;47.946;2.532;2023-03-08T10:34:47;2.47;;;1.83;;
19854;SDS011;10088;47.946;2.532;2023-03-08T10:37:13;5.23;;;2.33;;
19854;SDS011;10088;47.946;2.532;2023-03-08T10:39:51;4.33;;;1.97;;
19854;SDS011;10088;47.946;2.532;2023-03-08T10:42:20;8.57;;;3.27;;
19854;SDS011;10088;47.946;2.532;2023-03-08T10:44:51;2.10;;;1.43;;
19854;SDS011;10088;47.946;2.532;2023-03-08T10:49:45;3.80;;;1.30;;
19854;SDS011;10088;47.946;2.532;2023-03-08T10:52:27;3.67;;;1.70;;
19854;SDS011;10088;47.946;2.532;2023-03-08T10:55:26;2.70;;;1.13;;
19854;SDS011;10088;47.946;2.532;2023-03-08T11:02:43;4.13;;;2.00;;
19854;SDS011;10088;47.946;2.532;2023-03-08T11:05:15;3.17;;;1.50;;
19854;SDS011;10088;47.946;2.532;2023-03-08T11:07:41;1.40;;;1.00;;
19854;SDS011;10088;47.946;2.532;2023-03-08T11:10:14;3.20;;;1.87;;
19854;SDS011;10088;47.946;2.532;2023-03-08T11:12:40;6.93;;;1.93;;
19854;SDS011;10088;47.946;2.532;2023-03-08T11:15:11;4.80;;;1.80;;
19854;SDS011;10088;47.946;2.532;2023-03-08T11:17:36;5.43;;;1.67;;
19854;SDS011;10088;47.946;2.532;2023-03-08T11:20:12;3.37;;;1.17;;
19854;SDS011;10088;47.946;2.532;2023-03-08T11:32:52;3.37;;;1.43;;
19854;SDS011;10088;47.946;2.532;2023-03-08T11:40:38;4.77;;;1.60;;
19854;SDS011;10088;47.946;2.532;2023-03-08T11:43:13;3.20;;;2.00;;
19854;SDS011;10088;47.946;2.532;2023-03-08T11:51:15;3.50;;;1.50;;
19854;SDS011;10088;47.946;2.532;2023-03-08T11:53:49;3.23;;;1.67;;
19854;SDS011;10088;47.946;2.532;2023-03-08T11:56:22;6.20;;;2.20;;
19854;SDS011;10088;47.946;2.532;2023-03-08T11:58:56;4.20;;;1.67;;
19854;SDS011;10088;47.946;2.532;2023-03-08T12:01:24;3.47;;;1.53;;
19854;SDS011;10088;47.946;2.532;2023-03-08T12:04:02;2.33;;;1.60;;
19854;SDS011;10088;47.946;2.532;2023-03-08T12:06:39;2.67;;;1.80;;
19854;SDS011;10088;47.946;2.532;2023-03-08T12:09:26;5.20;;;1.63;;
19854;SDS011;10088;47.946;2.532;2023-03-08T12:12:13;4.17;;;1.83;;
19854;SDS011;10088;47.946;2.532;2023-03-08T12:14:45;4.37;;;1.10;;
19854;SDS011;10088;47.946;2.532;2023-03-08T12:19:45;5.23;;;2.37;;
19854;SDS011;10088;47.946;2.532;2023-03-08T12:24:59;5.10;;;2.60;;
19854;SDS011;10088;47.946;2.532;2023-03-08T12:32:35;2.90;;;1.40;;
19854;SDS011;10088;47.946;2.532;2023-03-08T12:35:03;1.27;;;0.97;;
19854;SDS011;10088;47.946;2.532;2023-03-08T12:37:29;2.70;;;1.07;;
19854;SDS011;10088;47.946;2.532;2023-03-08T12:42:27;6.77;;;3.17;;
19854;SDS011;10088;47.946;2.532;2023-03-08T12:45:03;4.87;;;1.73;;
19854;SDS011;10088;47.946;2.532;2023-03-08T12:47:29;6.93;;;3.50;;
19854;SDS011;10088;47.946;2.532;2023-03-08T12:49:54;0.60;;;0.50;;
19854;SDS011;10088;47.946;2.532;2023-03-08T12:57:25;1.37;;;1.27;;
19854;SDS011;10088;47.946;2.532;2023-03-08T12:59:55;2.40;;;0.63;;
19854;SDS011;10088;47.946;2.532;2023-03-08T13:04:47;0.63;;;0.50;;
19854;SDS011;10088;47.946;2.532;2023-03-08T13:14:42;0.73;;;0.30;;
19854;SDS011;10088;47.946;2.532;2023-03-08T13:20:13;1.37;;;0.40;;
19854;SDS011;10088;47.946;2.532;2023-03-08T13:22:48;1.50;;;0.47;;
19854;SDS011;10088;47.946;2.532;2023-03-08T13:33:14;6.80;;;5.13;;
19854;SDS011;10088;47.946;2.532;2023-03-08T13:35:41;0.20;;;0.20;;
19854;SDS011;10088;47.946;2.532;2023-03-08T13:38:15;0.30;;;0.30;;
19854;SDS011;10088;47.946;2.532;2023-03-08T13:40:49;0.40;;;0.40;;
19854;SDS011;10088;47.946;2.532;2023-03-08T13:43:14;0.30;;;0.30;;
19854;SDS011;10088;47.946;2.532;2023-03-08T13:45:39;0.20;;;0.20;;
19854;SDS011;10088;47.946;2.532;2023-03-08T13:48:06;0.50;;;0.30;;
19854;SDS011;10088;47.946;2.532;2023-03-08T13:50:34;1.13;;;0.30;;
19854;SDS011;10088;47.946;2.532;2023-03-08T13:53:00;0.30;;;0.30;;
19854;SDS011;10088;47.946;2.532;2023-03-08T13:55:28;1.03;;;0.60;;
19854;SDS011;10088;47.946;2.532;2023-03-08T13:57:56;0.50;;;0.40;;
19854;SDS011;10088;47.946;2.532;2023-03-08T14:02:50;0.20;;;0.20;;
19854;SDS011;10088;47.946;2.532;2023-03-08T14:05:17;0.97;;;0.30;;
19854;SDS011;10088;47.946;2.532;2023-03-08T14:07:42;0.27;;;0.27;;
19854;SDS011;10088;47.946;2.532;2023-03-08T14:10:12;0.70;;;0.40;;
19854;SDS011;10088;47.946;2.532;2023-03-08T14:12:37;0.83;;;0.33;;
19854;SDS011;10088;47.946;2.532;2023-03-08T14:15:03;0.30;;;0.30;;
19854;SDS011;10088;47.946;2.532;2023-03-08T14:17:29;0.20;;;0.20;;
19854;SDS011;10088;47.946;2.532;2023-03-08T14:19:56;1.40;;;0.30;;
19854;SDS011;10088;47.946;2.532;2023-03-08T14:22:22;0.53;;;0.53;;
19854;SDS011;10088;47.946;2.532;2023-03-08T14:24:50;2.10;;;0.40;;
19854;SDS011;10088;47.946;2.532;2023-03-08T14:29:42;0.20;;;0.20;;
19854;SDS011;10088;47.946;2.532;2023-03-08T14:34:37;1.37;;;0.40;;
19854;SDS011;10088;47.946;2.532;2023-03-08T14:39:35;0.23;;;0.23;;
19854;SDS011;10088;47.946;2.532;2023-03-08T14:42:08;2.37;;;0.30;;
19854;SDS011;10088;47.946;2.532;2023-03-08T14:44:34;1.13;;;0.40;;
19854;SDS011;10088;47.946;2.532;2023-03-08T14:47:15;0.30;;;0.30;;
19854;SDS011;10088;47.946;2.532;2023-03-08T14:49:43;0.63;;;0.40;;
19854;SDS011;10088;47.946;2.532;2023-03-08T14:52:21;1.53;;;0.80;;
19854;SDS011;10088;47.946;2.532;2023-03-08T14:54:46;0.30;;;0.30;;
19854;SDS011;10088;47.946;2.532;2023-03-08T14:57:16;1.10;;;0.50;;
19854;SDS011;10088;47.946;2.532;2023-03-08T14:59:42;0.50;;;0.40;;
19854;SDS011;10088;47.946;2.532;2023-03-08T15:02:11;0.97;;;0.40;;
19854;SDS011;10088;47.946;2.532;2023-03-08T15:04:36;0.83;;;0.50;;
19854;SDS011;10088;47.946;2.532;2023-03-08T15:07:02;1.80;;;0.40;;
19854;SDS011;10088;47.946;2.532;2023-03-08T15:09:27;0.90;;;0.70;;
19854;SDS011;10088;47.946;2.532;2023-03-08T15:11:54;1.20;;;1.03;;
19854;SDS011;10088;47.946;2.532;2023-03-08T15:14:23;1.23;;;0.70;;
19854;SDS011;10088;47.946;2.532;2023-03-08T15:16:49;2.00;;;0.40;;
19854;SDS011;10088;47.946;2.532;2023-03-08T15:19:15;0.50;;;0.50;;
19854;SDS011;10088;47.946;2.532;2023-03-08T15:21:40;0.60;;;0.50;;
19854;SDS011;10088;47.946;2.532;2023-03-08T15:24:06;1.40;;;0.70;;
19854;SDS011;10088;47.946;2.532;2023-03-08T15:26:34;1.13;;;0.70;;
19854;SDS011;10088;47.946;2.532;2023-03-08T15:28:59;1.67;;;0.63;;
19854;SDS011;10088;47.946;2.532;2023-03-08T15:31:28;1.13;;;0.70;;
19854;SDS011;10088;47.946;2.532;2023-03-08T15:33:54;1.37;;;0.80;;
19854;SDS011;10088;47.946;2.532;2023-03-08T15:36:19;2.07;;;1.00;;
19854;SDS011;10088;47.946;2.532;2023-03-08T15:38:45;1.53;;;0.70;;
19854;SDS011;10088;47.946;2.532;2023-03-08T15:41:14;1.30;;;0.70;;
19854;SDS011;10088;47.946;2.532;2023-03-08T15:43:40;3.67;;;0.77;;
19854;SDS011;10088;47.946;2.532;2023-03-08T15:46:05;1.13;;;0.70;;
19854;SDS011;10088;47.946;2.532;2023-03-08T15:48:31;1.80;;;0.80;;
19854;SDS011;10088;47.946;2.532;2023-03-08T15:50:56;1.57;;;0.80;;
19854;SDS011;10088;47.946;2.532;2023-03-08T15:53:22;2.63;;;0.80;;
19854;SDS011;10088;47.946;2.532;2023-03-08T15:55:48;1.00;;;0.60;;
19854;SDS011;10088;47.946;2.532;2023-03-08T15:58:13;1.70;;;0.67;;
19854;SDS011;10088;47.946;2.532;2023-03-08T16:00:38;4.13;;;0.87;;
19854;SDS011;10088;47.946;2.532;2023-03-08T16:03:04;2.83;;;0.63;;
19854;SDS011;10088;47.946;2.532;2023-03-08T16:05:29;1.13;;;0.70;;
19854;SDS011;10088;47.946;2.532;2023-03-08T16:07:58;2.23;;;0.97;;
19854;SDS011;10088;47.946;2.532;2023-03-08T16:10:24;2.27;;;0.60;;
19854;SDS011;10088;47.946;2.532;2023-03-08T16:12:50;0.63;;;0.60;;
19854;SDS011;10088;47.946;2.532;2023-03-08T16:15:16;1.10;;;0.67;;
19854;SDS011;10088;47.946;2.532;2023-03-08T16:17:41;0.97;;;0.70;;
19854;SDS011;10088;47.946;2.532;2023-03-08T16:20:06;2.80;;;1.00;;
19854;SDS011;10088;47.946;2.532;2023-03-08T16:22:33;3.90;;;1.23;;
19854;SDS011;10088;47.946;2.532;2023-03-08T16:24:58;5.80;;;0.90;;
19854;SDS011;10088;47.946;2.532;2023-03-08T16:27:23;2.57;;;0.77;;